Red Lodge, MT (59068)

9:51 AM MST on March 01, 2015 (GMT -0700)
RAWS TIMBERCREST MT US | Change Station
CLOSE
Current Station
Personal Weather Station
Location: Red Lodge, MT
Elevation: 6399 ft
Nearby Weather Stations
Active Advisory: Winter Storm Watch

Elev 6399 ft 45.16 °N, 109.36 °W | Updated 1 hour ago

Clear
Clear
8 °F
Feels Like 8 °F
N
3
Wind Variable Wind from West
Gusts 8.0 mph

Today
High -- | Low -- °F
--% Chance of Precip.
Yesterday
High -- | Low -- °F
Precip. -- in
6:55 AM 6:04 PM
Waxing Gibbous, 86% visible
Pressure 30.23 in
Visibility 10.0 miles
Clouds Few 3800 ft
Windchill 8 °F
Dew Point -8 °F
Humidity 47%
Rainfall 0.00 in
Snow Depth Not available.
UV 2 out of 12
Pollen .10 out of 12
Air Quality Not available.
Flu Activity Not available.
METAR KCOD 011635Z 19005KT 10SM FEW038 M08/M12 A3023 RMK AO1

More Conditions Fewer Conditions

Pressure 30.23 in
Visibility 10.0 miles
Clouds Few 3800 ft
Windchill 8 °F
Dew Point -8 °F
Humidity 47%
Rainfall 0.00 in
Snow Depth Not available.
UV 2 out of 12
Pollen .10 out of 12
Air Quality Not available.
Flu Activity Not available.
METAR KCOD 011635Z 19005KT 10SM FEW038 M08/M12 A3023 RMK AO1

More Conditions Fewer Conditions

10-Day Weather Forecast

Almanac

Astronomy

Mar. 01, 2015 Rise Set
Actual Time
Civil Twilight
Nautical Twilight
Astronomical Twilight
Moon
Length of Visible Light
Length of Day
Tomorrow will be .
, % of the Moon is Illuminated

Today's Extremes

State Highs State Lows

Community

WunderPhotos

Upload Photos

1,801,451 photos uploaded!

WunderBlogs® & News

Nearby

Air Quality

  Air Quality AQ Index Pollutant
Not available.

Snow Depth

Station Depth Elevation

Earthquake Activity

City Distance Mag. Time & Date
Minimum magnitude displayed is 2.5.

Coastal Water Temperatures

Place Temperature

Nearby Weather Stations

Winter Storm Watch
Statement as of 4:02 AM MST on March 01, 2015

... Winter Storm Watch in effect from Monday evening through
Tuesday morning...

The National Weather Service in Billings has issued a Winter
Storm Watch... which is in effect from Monday evening through
Tuesday morning.

* Timing... Monday evening through noon on Tuesday

* snow accumulation... 8 to 14 inches in mountains... especially on
north facing slopes. 4 to 8 inches in the foothills. Locally
higher amounts possible.

* Winds... north at 15 to 25 mph.

* Impacts... heavy snowfall and gusty north winds may produce
hazardous driving conditions on area roadways... including
Highway 87 south of Livingston... Highway 212 south of
Laurel... and Interstate 90. These conditions will be dangerous
for Young livestock.

Precautionary/preparedness actions...

A Winter Storm Watch is issued when severe winter weather is
possible but not imminent. At this time there is a potential for
significant snow. Future driving conditions may become hazardous
so it is important to monitor the latest forecasts.



Http://weather.Gov/Billings